createdAt,value
2018-08-08T00:00:34.701Z,991.68
2018-08-08T00:01:34.700Z,991.67
2018-08-08T00:02:34.701Z,991.63
2018-08-08T00:03:34.701Z,991.60
2018-08-08T00:04:34.701Z,991.58
2018-08-08T00:05:34.701Z,991.49
2018-08-08T00:06:34.702Z,991.40
2018-08-08T00:07:34.701Z,991.47
2018-08-08T00:08:34.702Z,991.49
2018-08-08T00:09:34.702Z,991.52
2018-08-08T00:10:34.703Z,991.55
2018-08-08T00:11:34.702Z,991.60
2018-08-08T00:12:34.702Z,991.60
2018-08-08T00:13:34.704Z,991.61
2018-08-08T00:14:34.704Z,991.63
2018-08-08T00:15:34.703Z,991.65
2018-08-08T00:16:34.705Z,991.73
2018-08-08T00:17:34.705Z,991.70
2018-08-08T00:18:34.708Z,991.72
2018-08-08T00:19:34.708Z,991.74
2018-08-08T00:20:34.706Z,991.76
2018-08-08T00:21:34.706Z,991.76
2018-08-08T00:22:34.706Z,991.80
2018-08-08T00:23:34.706Z,991.89
2018-08-08T00:24:34.706Z,992.05
2018-08-08T00:25:34.707Z,992.19
2018-08-08T00:26:34.707Z,992.33
2018-08-08T00:27:34.711Z,992.49
2018-08-08T00:28:34.708Z,992.58
2018-08-08T00:29:34.707Z,992.69
2018-08-08T00:30:34.709Z,992.72
2018-08-08T00:31:34.708Z,992.80
2018-08-08T00:32:34.708Z,992.83
2018-08-08T00:33:34.709Z,992.91
2018-08-08T00:34:34.709Z,992.97
2018-08-08T00:35:34.708Z,992.98
2018-08-08T00:36:34.709Z,992.97
2018-08-08T00:37:34.709Z,992.95
2018-08-08T00:38:34.709Z,992.89
2018-08-08T00:39:34.708Z,992.79
2018-08-08T00:40:34.708Z,992.73
2018-08-08T00:41:34.709Z,992.77
2018-08-08T00:42:34.708Z,992.80
2018-08-08T00:43:34.707Z,992.83
2018-08-08T00:44:34.707Z,992.85
2018-08-08T00:45:34.707Z,992.88
2018-08-08T00:46:34.706Z,992.86
2018-08-08T00:47:34.704Z,992.76
2018-08-08T00:48:34.704Z,992.76
2018-08-08T00:49:34.704Z,992.88
2018-08-08T00:50:34.703Z,992.82
2018-08-08T00:51:34.701Z,992.87
2018-08-08T00:52:34.701Z,992.76
2018-08-08T00:53:34.699Z,992.74
2018-08-08T00:54:34.698Z,992.80
2018-08-08T00:55:34.997Z,992.83
2018-08-08T00:56:34.695Z,992.89
2018-08-08T00:57:34.694Z,992.96
2018-08-08T00:58:34.693Z,993.04
2018-08-08T00:59:34.691Z,993.06
2018-08-08T01:00:34.692Z,993.08
2018-08-08T01:01:34.688Z,993.03
2018-08-08T01:02:34.687Z,993.03
2018-08-08T01:03:34.685Z,993.12
2018-08-08T01:04:34.684Z,993.18
2018-08-08T01:05:34.682Z,993.16
2018-08-08T01:06:34.680Z,993.18
2018-08-08T01:07:34.678Z,993.21
2018-08-08T01:08:34.732Z,993.17
2018-08-08T01:09:34.675Z,993.17
2018-08-08T01:10:34.672Z,993.05
2018-08-08T01:11:34.669Z,993.12
2018-08-08T01:12:34.667Z,993.06
2018-08-08T01:13:34.665Z,993.03
2018-08-08T01:14:34.663Z,993.04
2018-08-08T01:15:34.659Z,992.95
2018-08-08T01:16:34.661Z,992.87
2018-08-08T01:17:34.655Z,992.82
2018-08-08T01:18:34.952Z,992.79
2018-08-08T01:19:34.649Z,992.68
2018-08-08T01:20:34.646Z,992.63
2018-08-08T01:21:34.644Z,992.52
2018-08-08T01:22:34.641Z,992.56
2018-08-08T01:23:34.639Z,992.46
2018-08-08T01:24:34.634Z,992.36
2018-08-08T01:25:34.631Z,992.47
2018-08-08T01:26:34.629Z,992.40
2018-08-08T01:27:34.625Z,992.39
2018-08-08T01:28:34.621Z,992.57
2018-08-08T01:29:34.618Z,992.66
2018-08-08T01:30:34.614Z,992.64
2018-08-08T01:31:34.611Z,992.64
2018-08-08T01:32:34.607Z,992.61
2018-08-08T01:33:34.603Z,992.58
2018-08-08T01:34:34.601Z,992.52
2018-08-08T01:35:34.596Z,992.51
2018-08-08T01:36:34.593Z,992.50
2018-08-08T01:37:34.590Z,992.44
2018-08-08T01:38:34.586Z,992.38
2018-08-08T01:39:34.583Z,992.34
2018-08-08T01:40:34.579Z,992.34
2018-08-08T01:41:34.576Z,992.34
2018-08-08T01:42:34.573Z,992.32
2018-08-08T01:43:34.569Z,992.25
2018-08-08T01:44:34.566Z,992.17
2018-08-08T01:45:34.591Z,992.04
2018-08-08T01:46:34.559Z,991.94
2018-08-08T01:47:34.555Z,991.88
2018-08-08T01:48:34.551Z,991.76
2018-08-08T01:49:34.549Z,991.72
2018-08-08T01:50:34.547Z,991.71
2018-08-08T01:51:34.542Z,991.69
2018-08-08T01:52:34.546Z,991.69
2018-08-08T01:53:34.535Z,991.64
2018-08-08T01:54:34.531Z,991.46
2018-08-08T01:55:34.528Z,991.20
2018-08-08T01:56:34.524Z,991.02
2018-08-08T01:57:34.521Z,990.86
2018-08-08T01:58:34.518Z,990.79
2018-08-08T01:59:34.515Z,990.73
2018-08-08T02:00:34.511Z,990.61
2018-08-08T02:01:34.508Z,990.57
2018-08-08T02:02:34.505Z,990.50
2018-08-08T02:03:34.500Z,990.58
2018-08-08T02:04:34.498Z,990.53
2018-08-08T02:05:34.495Z,990.56
2018-08-08T02:06:34.492Z,990.51
2018-08-08T02:07:34.491Z,990.54
2018-08-08T02:08:34.485Z,990.57
2018-08-08T02:09:34.482Z,990.60
2018-08-08T02:10:34.479Z,990.58
2018-08-08T02:11:34.476Z,990.59
2018-08-08T02:12:34.474Z,990.63
2018-08-08T02:13:34.473Z,990.63
2018-08-08T02:14:34.468Z,990.64
2018-08-08T02:15:34.464Z,990.66
2018-08-08T02:16:34.461Z,990.56
2018-08-08T02:17:34.459Z,990.55
2018-08-08T02:18:34.456Z,990.55
2018-08-08T02:19:34.452Z,990.55
2018-08-08T02:20:34.449Z,990.58
2018-08-08T02:21:34.447Z,990.55
2018-08-08T02:22:34.448Z,990.62
2018-08-08T02:23:34.442Z,990.61
2018-08-08T02:24:34.438Z,990.59
2018-08-08T02:25:34.436Z,990.62
2018-08-08T02:26:34.433Z,990.68
2018-08-08T02:27:34.429Z,990.78
2018-08-08T02:28:34.427Z,990.93
2018-08-08T02:29:34.424Z,991.04
2018-08-08T02:30:34.422Z,991.19
2018-08-08T02:31:34.419Z,991.30
2018-08-08T02:32:34.417Z,991.42
2018-08-08T02:33:34.414Z,991.53
2018-08-08T02:34:34.413Z,991.62
2018-08-08T02:35:34.407Z,991.70
2018-08-08T02:36:34.405Z,991.87
2018-08-08T02:37:34.402Z,992.08
2018-08-08T02:38:34.400Z,992.37
2018-08-08T02:39:34.396Z,992.75
2018-08-08T02:40:34.694Z,992.99
2018-08-08T02:41:34.390Z,993.26
2018-08-08T02:42:34.387Z,993.05
2018-08-08T02:43:34.384Z,993.06
2018-08-08T02:44:34.380Z,992.98
2018-08-08T02:45:34.376Z,992.91
2018-08-08T02:46:34.374Z,992.83
2018-08-08T02:47:34.372Z,992.90
2018-08-08T02:48:34.370Z,992.86
2018-08-08T02:49:34.364Z,992.77
2018-08-08T02:50:34.359Z,992.75
2018-08-08T02:51:34.354Z,992.70
2018-08-08T02:52:34.352Z,992.72
2018-08-08T02:53:34.348Z,992.65
2018-08-08T02:54:34.343Z,992.53
2018-08-08T02:55:34.338Z,992.41
2018-08-08T02:56:34.336Z,992.34
2018-08-08T02:57:34.331Z,992.32
2018-08-08T02:58:34.328Z,992.26
2018-08-08T02:59:34.323Z,992.20
2018-08-08T03:00:34.319Z,992.13
2018-08-08T03:01:34.316Z,992.10
2018-08-08T03:02:34.312Z,992.01
2018-08-08T03:03:34.308Z,991.94
2018-08-08T03:04:34.318Z,991.93
2018-08-08T03:05:34.301Z,991.93
2018-08-08T03:06:34.297Z,991.97
2018-08-08T03:07:34.294Z,991.99
2018-08-08T03:08:34.319Z,992.05
2018-08-08T03:09:34.286Z,992.17
2018-08-08T03:10:34.282Z,992.41
2018-08-08T03:11:34.278Z,992.69
2018-08-08T03:12:34.275Z,992.82
2018-08-08T03:13:34.272Z,992.99
2018-08-08T03:14:34.267Z,993.23
2018-08-08T03:15:34.266Z,993.24
2018-08-08T03:16:34.263Z,993.03
2018-08-08T03:17:34.256Z,993.26
2018-08-08T03:18:34.255Z,993.21
2018-08-08T03:19:34.307Z,993.23
2018-08-08T03:20:34.245Z,993.35
2018-08-08T03:21:34.241Z,993.39
2018-08-08T03:22:34.238Z,993.37
2018-08-08T03:23:34.234Z,993.37
2018-08-08T03:24:34.230Z,993.31
2018-08-08T03:25:34.226Z,993.33
2018-08-08T03:26:34.223Z,993.20
2018-08-08T03:27:34.218Z,993.23
2018-08-08T03:28:34.215Z,993.19
2018-08-08T03:29:34.214Z,993.10
2018-08-08T03:30:34.207Z,993.09
2018-08-08T03:31:34.203Z,993.11
2018-08-08T03:32:34.199Z,993.21
2018-08-08T03:33:34.195Z,993.12
2018-08-08T03:34:34.191Z,993.16
2018-08-08T03:35:34.188Z,993.20
2018-08-08T03:36:34.299Z,993.22
2018-08-08T03:37:34.179Z,993.27
2018-08-08T03:38:34.175Z,993.36
2018-08-08T03:39:34.170Z,993.47
2018-08-08T03:40:34.167Z,993.52
2018-08-08T03:41:34.163Z,993.45
2018-08-08T03:42:34.160Z,993.53
2018-08-08T03:43:34.154Z,993.64
2018-08-08T03:44:34.151Z,993.94
2018-08-08T03:45:34.147Z,993.94
2018-08-08T03:46:34.144Z,993.87
2018-08-08T03:47:34.140Z,994.10
2018-08-08T03:48:34.139Z,994.01
2018-08-08T03:49:34.131Z,993.95
2018-08-08T03:50:34.130Z,994.04
2018-08-08T03:51:34.122Z,994.02
2018-08-08T03:52:34.117Z,994.09
2018-08-08T03:53:34.113Z,994.14
2018-08-08T03:54:34.109Z,994.37
2018-08-08T03:55:34.104Z,994.32
2018-08-08T03:56:34.100Z,994.42
2018-08-08T03:57:34.100Z,994.50
2018-08-08T03:58:34.096Z,994.47
2018-08-08T03:59:34.085Z,994.54
2018-08-08T04:00:34.082Z,994.53
2018-08-08T04:01:34.078Z,994.65
2018-08-08T04:02:34.142Z,994.75
2018-08-08T04:03:34.067Z,994.71
2018-08-08T04:04:34.060Z,994.70
2018-08-08T04:05:34.124Z,994.66
2018-08-08T04:06:34.051Z,994.64
2018-08-08T04:07:34.045Z,994.62
2018-08-08T04:08:34.042Z,994.65
2018-08-08T04:09:34.036Z,994.55
2018-08-08T04:10:34.032Z,994.66
2018-08-08T04:11:34.032Z,994.69
2018-08-08T04:12:34.021Z,994.63
2018-08-08T04:13:34.020Z,994.58
2018-08-08T04:14:34.012Z,994.58
2018-08-08T04:15:34.010Z,994.54
2018-08-08T04:16:34.003Z,994.66
2018-08-08T04:17:33.998Z,994.62
2018-08-08T04:18:33.994Z,994.62
2018-08-08T04:19:33.988Z,994.63
2018-08-08T04:20:33.984Z,994.64
2018-08-08T04:21:33.980Z,994.68
2018-08-08T04:22:33.976Z,994.67
2018-08-08T04:23:33.973Z,994.65
2018-08-08T04:24:33.967Z,994.69
2018-08-08T04:25:33.963Z,994.67
2018-08-08T04:26:33.959Z,994.69
2018-08-08T04:27:33.954Z,994.74
2018-08-08T04:28:33.949Z,994.78
2018-08-08T04:29:33.945Z,994.77
2018-08-08T04:30:33.941Z,994.78
2018-08-08T04:31:33.938Z,994.77
2018-08-08T04:32:33.933Z,994.73
2018-08-08T04:33:33.929Z,994.68
2018-08-08T04:34:33.925Z,994.72
2018-08-08T04:35:33.920Z,994.77
2018-08-08T04:36:33.917Z,994.78
2018-08-08T04:37:33.912Z,994.79
2018-08-08T04:38:33.908Z,994.80
2018-08-08T04:39:33.903Z,994.67
2018-08-08T04:40:33.899Z,994.74
2018-08-08T04:41:33.896Z,994.75
2018-08-08T04:42:33.892Z,994.84
2018-08-08T04:43:33.937Z,994.82
2018-08-08T04:44:33.884Z,994.76
2018-08-08T04:45:33.880Z,994.69
2018-08-08T04:46:33.876Z,994.81
2018-08-08T04:47:33.872Z,994.68
2018-08-08T04:48:33.868Z,994.76
2018-08-08T04:49:33.864Z,994.77
2018-08-08T04:50:33.861Z,994.64
2018-08-08T04:51:33.855Z,994.61
2018-08-08T04:52:33.852Z,994.63
2018-08-08T04:53:33.848Z,994.62
2018-08-08T04:54:33.844Z,994.66
2018-08-08T04:55:33.865Z,994.81
2018-08-08T04:56:33.836Z,994.72
2018-08-08T04:57:33.833Z,994.70
2018-08-08T04:58:33.830Z,994.69
2018-08-08T04:59:33.824Z,994.66
2018-08-08T05:00:33.821Z,994.74
2018-08-08T05:01:33.817Z,994.70
2018-08-08T05:02:33.813Z,994.71
2018-08-08T05:03:33.809Z,994.70
2018-08-08T05:04:33.806Z,994.63
2018-08-08T05:05:33.802Z,994.64
2018-08-08T05:06:33.799Z,994.63
2018-08-08T05:07:33.794Z,994.67
2018-08-08T05:08:33.791Z,994.66
2018-08-08T05:09:33.789Z,994.73
2018-08-08T05:10:33.784Z,994.65
2018-08-08T05:11:33.780Z,994.64
2018-08-08T05:12:33.776Z,994.60
2018-08-08T05:13:33.773Z,994.64
2018-08-08T05:14:33.770Z,994.60
2018-08-08T05:15:33.765Z,994.58
2018-08-08T05:16:33.765Z,994.57
2018-08-08T05:17:33.759Z,994.58
2018-08-08T05:18:33.757Z,994.48
2018-08-08T05:19:33.752Z,994.47
2018-08-08T05:20:33.749Z,994.45
2018-08-08T05:21:33.746Z,994.47
2018-08-08T05:22:33.742Z,994.51
2018-08-08T05:23:33.737Z,994.51
2018-08-08T05:24:33.734Z,994.51
2018-08-08T05:25:33.732Z,994.49
2018-08-08T05:26:33.728Z,994.49
2018-08-08T05:27:33.724Z,994.55
2018-08-08T05:28:33.722Z,994.60
2018-08-08T05:29:33.719Z,994.58
2018-08-08T05:30:33.762Z,994.61
2018-08-08T05:31:33.712Z,994.60
2018-08-08T05:32:33.709Z,994.59
2018-08-08T05:33:33.706Z,994.64
2018-08-08T05:34:33.703Z,994.59
2018-08-08T05:35:33.699Z,994.60
2018-08-08T05:36:33.696Z,994.55
2018-08-08T05:37:33.725Z,994.55
2018-08-08T05:38:33.690Z,994.56
2018-08-08T05:39:33.697Z,994.59
2018-08-08T05:40:33.688Z,994.58
2018-08-08T05:41:33.681Z,994.53
2018-08-08T05:42:33.678Z,994.49
2018-08-08T05:43:33.674Z,994.48
2018-08-08T05:44:33.673Z,994.52
2018-08-08T05:45:33.669Z,994.48
2018-08-08T05:46:33.666Z,994.49
2018-08-08T05:47:33.662Z,994.49
2018-08-08T05:48:33.659Z,994.49
2018-08-08T05:49:33.657Z,994.49
2018-08-08T05:50:33.654Z,994.54
2018-08-08T05:51:33.650Z,994.43
2018-08-08T05:52:33.647Z,994.39
2018-08-08T05:53:33.646Z,994.38
2018-08-08T05:54:33.641Z,994.43
2018-08-08T05:55:33.637Z,994.42
2018-08-08T05:56:33.634Z,994.43
2018-08-08T05:57:33.632Z,994.45
2018-08-08T05:58:33.629Z,994.44
2018-08-08T05:59:33.628Z,994.43
2018-08-08T06:00:33.622Z,994.40
2018-08-08T06:01:33.650Z,994.51
2018-08-08T06:02:33.618Z,994.44
2018-08-08T06:03:33.613Z,994.45
2018-08-08T06:04:33.610Z,994.45
2018-08-08T06:05:33.607Z,994.45
2018-08-08T06:06:33.605Z,994.48
2018-08-08T06:07:33.601Z,994.44
2018-08-08T06:08:33.599Z,994.44
2018-08-08T06:09:33.596Z,994.43
2018-08-08T06:10:33.593Z,994.51
2018-08-08T06:11:33.592Z,994.40
2018-08-08T06:12:33.586Z,994.40
2018-08-08T06:13:33.584Z,994.35
2018-08-08T06:14:33.582Z,994.35
2018-08-08T06:15:33.578Z,994.36
2018-08-08T06:16:33.576Z,994.32
2018-08-08T06:17:33.574Z,994.34
2018-08-08T06:18:33.570Z,994.30
2018-08-08T06:19:33.568Z,994.31
2018-08-08T06:20:33.565Z,994.22
2018-08-08T06:21:33.562Z,994.31
2018-08-08T06:22:33.560Z,994.20
2018-08-08T06:23:33.556Z,994.26
2018-08-08T06:24:33.554Z,994.30
2018-08-08T06:25:33.554Z,994.30
2018-08-08T06:26:33.550Z,994.30
2018-08-08T06:27:33.547Z,994.26
2018-08-08T06:28:33.544Z,994.30
2018-08-08T06:29:33.541Z,994.30
2018-08-08T06:30:33.556Z,994.32
2018-08-08T06:31:33.536Z,994.36
2018-08-08T06:32:33.535Z,994.31
2018-08-08T06:33:33.602Z,994.25
2018-08-08T06:34:33.530Z,994.19
2018-08-08T06:35:33.526Z,994.27
2018-08-08T06:36:33.524Z,994.16
2018-08-08T06:37:33.521Z,994.22
2018-08-08T06:38:33.523Z,994.18
2018-08-08T06:39:33.517Z,994.13
2018-08-08T06:40:33.514Z,994.19
2018-08-08T06:41:33.512Z,994.12
2018-08-08T06:42:33.510Z,994.11
2018-08-08T06:43:33.509Z,994.14
2018-08-08T06:44:33.505Z,994.11
2018-08-08T06:45:33.503Z,994.04
2018-08-08T06:46:33.501Z,994.09
2018-08-08T06:47:33.498Z,994.11
2018-08-08T06:48:33.498Z,994.13
2018-08-08T06:49:33.494Z,994.13
2018-08-08T06:50:33.492Z,994.20
2018-08-08T06:51:33.489Z,994.14
2018-08-08T06:52:33.487Z,994.20
2018-08-08T06:53:33.485Z,994.21
2018-08-08T06:54:33.483Z,994.21
2018-08-08T06:55:33.480Z,994.20
2018-08-08T06:56:33.478Z,994.21
2018-08-08T06:57:33.476Z,994.23
2018-08-08T06:58:33.474Z,994.24
2018-08-08T06:59:33.471Z,994.24
2018-08-08T07:00:33.469Z,994.21
2018-08-08T07:01:33.472Z,994.23
2018-08-08T07:02:33.464Z,994.29
2018-08-08T07:03:33.461Z,994.28
2018-08-08T07:04:33.460Z,994.24
2018-08-08T07:05:33.491Z,994.27
2018-08-08T07:06:33.454Z,994.20
2018-08-08T07:07:33.452Z,994.19
2018-08-08T07:08:33.449Z,994.20
2018-08-08T07:09:33.447Z,994.22
2018-08-08T07:10:33.445Z,994.28
2018-08-08T07:11:33.442Z,994.26
2018-08-08T07:12:33.440Z,994.24
2018-08-08T07:13:33.446Z,994.22
2018-08-08T07:14:33.436Z,994.25
2018-08-08T07:15:33.432Z,994.21
2018-08-08T07:16:33.432Z,994.24
2018-08-08T07:17:33.428Z,994.23
2018-08-08T07:18:33.426Z,994.28
2018-08-08T07:19:33.423Z,994.28
2018-08-08T07:20:33.421Z,994.16
2018-08-08T07:21:33.424Z,994.24
2018-08-08T07:22:33.418Z,994.27
2018-08-08T07:23:33.416Z,994.35
2018-08-08T07:24:33.415Z,994.18
2018-08-08T07:25:33.465Z,994.17
2018-08-08T07:26:33.416Z,994.22
2018-08-08T07:27:33.412Z,994.12
2018-08-08T07:28:33.411Z,994.15
2018-08-08T07:29:33.411Z,994.10
2018-08-08T07:30:33.411Z,994.17
2018-08-08T07:31:33.410Z,994.19
2018-08-08T07:32:33.410Z,994.21
2018-08-08T07:33:33.410Z,994.19
2018-08-08T07:34:33.411Z,994.20
2018-08-08T07:35:33.410Z,994.26
2018-08-08T07:36:33.411Z,994.25
2018-08-08T07:37:33.412Z,994.25
2018-08-08T07:38:33.413Z,994.27
2018-08-08T07:39:33.413Z,994.31
2018-08-08T07:40:33.472Z,994.29
2018-08-08T07:41:33.417Z,994.37
2018-08-08T07:42:33.419Z,994.29
2018-08-08T07:43:33.421Z,994.38
2018-08-08T07:44:33.426Z,994.39
2018-08-08T07:45:33.486Z,994.36
2018-08-08T07:46:33.435Z,994.43
2018-08-08T07:47:33.456Z,994.40
2018-08-08T07:48:33.435Z,994.43
2018-08-08T07:49:33.438Z,994.40
2018-08-08T07:50:33.442Z,994.40
2018-08-08T07:51:33.445Z,994.38
2018-08-08T07:52:33.449Z,994.43
2018-08-08T07:53:33.451Z,994.44
2018-08-08T07:54:33.455Z,994.46
2018-08-08T07:55:33.457Z,994.58
2018-08-08T07:56:33.460Z,994.49
2018-08-08T07:57:33.463Z,994.49
2018-08-08T07:58:33.467Z,994.55
2018-08-08T07:59:33.469Z,994.44
2018-08-08T08:00:33.473Z,994.46
2018-08-08T08:01:33.478Z,994.53
2018-08-08T08:02:33.482Z,994.48
2018-08-08T08:03:33.487Z,994.56
2018-08-08T08:04:33.488Z,994.56
2018-08-08T08:05:33.492Z,994.63
2018-08-08T08:06:33.500Z,994.64
2018-08-08T08:07:33.500Z,994.56
2018-08-08T08:08:33.505Z,994.61
2018-08-08T08:09:33.508Z,994.62
2018-08-08T08:10:33.512Z,994.71
2018-08-08T08:11:33.514Z,994.66
2018-08-08T08:12:33.517Z,994.61
2018-08-08T08:13:33.519Z,994.67
2018-08-08T08:14:33.522Z,994.60
2018-08-08T08:15:33.526Z,994.66
2018-08-08T08:16:33.526Z,994.74
2018-08-08T08:17:33.528Z,994.65
2018-08-08T08:18:33.531Z,994.67
2018-08-08T08:19:33.533Z,994.72
2018-08-08T08:20:33.536Z,994.81
2018-08-08T08:21:33.539Z,994.93
2018-08-08T08:22:33.543Z,994.79
2018-08-08T08:23:33.546Z,994.80
2018-08-08T08:24:33.549Z,994.82
2018-08-08T08:25:33.553Z,994.97
2018-08-08T08:26:33.558Z,994.90
2018-08-08T08:27:33.561Z,994.90
2018-08-08T08:28:33.566Z,994.94
2018-08-08T08:29:33.572Z,994.89
2018-08-08T08:30:33.577Z,994.94
2018-08-08T08:31:33.583Z,994.90
2018-08-08T08:32:33.591Z,995.00
2018-08-08T08:33:33.594Z,994.98
2018-08-08T08:34:33.601Z,994.95
2018-08-08T08:35:33.610Z,995.00
2018-08-08T08:36:33.612Z,995.03
2018-08-08T08:37:33.619Z,995.08
2018-08-08T08:38:33.626Z,995.10
2018-08-08T08:39:33.637Z,995.16
2018-08-08T08:40:33.639Z,995.22
2018-08-08T08:41:33.647Z,995.23
2018-08-08T08:42:33.654Z,995.25
2018-08-08T08:43:33.664Z,995.16
2018-08-08T08:44:33.668Z,995.28
2018-08-08T08:45:33.677Z,995.37
2018-08-08T08:46:33.685Z,995.30
2018-08-08T08:47:33.691Z,995.46
2018-08-08T08:48:33.699Z,995.47
2018-08-08T08:49:33.707Z,995.45
2018-08-08T08:50:33.713Z,995.42
2018-08-08T08:51:33.719Z,995.47
2018-08-08T08:52:33.725Z,995.61
2018-08-08T08:53:33.731Z,995.67
2018-08-08T08:54:33.737Z,995.66
2018-08-08T08:55:33.740Z,995.64
2018-08-08T08:56:33.745Z,995.80
2018-08-08T08:57:33.749Z,995.68
2018-08-08T08:58:33.752Z,995.71
2018-08-08T08:59:33.755Z,995.74
2018-08-08T09:00:33.758Z,995.76
2018-08-08T09:01:33.761Z,995.75
2018-08-08T09:02:33.887Z,995.78
2018-08-08T09:03:33.766Z,995.82
2018-08-08T09:04:33.769Z,995.79
2018-08-08T09:05:33.774Z,995.95
2018-08-08T09:06:33.780Z,995.86
2018-08-08T09:07:33.912Z,995.90
2018-08-08T09:08:33.784Z,995.92
2018-08-08T09:09:33.788Z,995.99
2018-08-08T09:10:33.792Z,995.90
2018-08-08T09:11:33.799Z,995.94
2018-08-08T09:12:33.800Z,995.93
2018-08-08T09:13:33.803Z,996.01
2018-08-08T09:14:33.807Z,996.07
2018-08-08T09:15:33.810Z,996.06
2018-08-08T09:16:33.814Z,996.08
2018-08-08T09:17:33.820Z,996.11
2018-08-08T09:18:33.829Z,996.10
2018-08-08T09:19:33.830Z,996.17
2018-08-08T09:20:33.835Z,996.24
2018-08-08T09:21:33.841Z,996.15
2018-08-08T09:22:33.849Z,996.16
2018-08-08T09:23:33.850Z,996.15
2018-08-08T09:24:33.854Z,996.16
2018-08-08T09:25:33.859Z,996.15
2018-08-08T09:26:33.864Z,996.19
2018-08-08T09:27:33.867Z,996.22
2018-08-08T09:28:33.922Z,996.16
2018-08-08T09:29:33.875Z,996.23
2018-08-08T09:30:33.980Z,996.25
2018-08-08T09:31:33.883Z,996.27
2018-08-08T09:32:33.888Z,996.30
2018-08-08T09:33:33.892Z,996.32
2018-08-08T09:34:33.898Z,996.29
2018-08-08T09:35:33.902Z,996.34
2018-08-08T09:36:33.906Z,996.35
2018-08-08T09:37:33.910Z,996.40
2018-08-08T09:38:33.915Z,996.40
2018-08-08T09:39:33.917Z,996.40
2018-08-08T09:40:33.921Z,996.42
2018-08-08T09:41:33.925Z,996.44
2018-08-08T09:42:33.928Z,996.35
2018-08-08T09:43:33.930Z,996.49
2018-08-08T09:44:33.943Z,996.54
2018-08-08T09:46:33.939Z,996.55
2018-08-08T09:47:33.941Z,996.65
2018-08-08T09:48:33.944Z,996.56
2018-08-08T09:49:33.948Z,996.63
2018-08-08T09:50:33.950Z,996.66
2018-08-08T09:51:33.953Z,996.62
2018-08-08T09:52:33.956Z,996.64
2018-08-08T09:53:33.959Z,996.67
2018-08-08T09:54:33.963Z,996.67
2018-08-08T09:55:34.016Z,996.59
2018-08-08T09:56:33.969Z,996.62
2018-08-08T09:57:33.972Z,996.67
2018-08-08T09:58:33.978Z,996.66
2018-08-08T09:59:33.988Z,996.73
2018-08-08T10:00:33.980Z,996.65
2018-08-08T10:01:33.984Z,996.81
2018-08-08T10:02:33.986Z,996.85
2018-08-08T10:03:34.071Z,996.85
2018-08-08T10:04:33.992Z,996.76
2018-08-08T10:05:33.996Z,996.76
2018-08-08T10:06:34.000Z,996.79
2018-08-08T10:07:34.002Z,996.87
2018-08-08T10:08:34.007Z,996.92
2018-08-08T10:09:34.009Z,996.89
2018-08-08T10:10:34.013Z,996.85
2018-08-08T10:11:34.017Z,996.95
2018-08-08T10:12:34.020Z,996.95
2018-08-08T10:13:34.029Z,996.98
2018-08-08T10:14:34.033Z,996.94
2018-08-08T10:15:34.037Z,997.04
2018-08-08T10:16:34.040Z,997.05
2018-08-08T10:17:34.047Z,997.07
2018-08-08T10:18:34.054Z,997.10
2018-08-08T10:19:34.060Z,997.15
2018-08-08T10:20:34.070Z,997.13
2018-08-08T10:21:34.076Z,997.11
2018-08-08T10:22:34.085Z,997.13
2018-08-08T10:23:34.093Z,997.18
2018-08-08T10:24:34.102Z,997.18
2018-08-08T10:25:34.111Z,997.29
2018-08-08T10:26:34.190Z,997.21
2018-08-08T10:27:34.132Z,997.22
2018-08-08T10:28:34.138Z,997.20
2018-08-08T10:29:34.148Z,997.22
2018-08-08T10:30:34.160Z,997.17
2018-08-08T10:31:34.168Z,997.19
2018-08-08T10:32:34.178Z,997.25
2018-08-08T10:33:34.195Z,997.25
2018-08-08T10:34:34.201Z,997.18
2018-08-08T10:35:34.207Z,997.28
2018-08-08T10:36:34.218Z,997.35
2018-08-08T10:37:34.227Z,997.33
2018-08-08T10:38:34.238Z,997.36
2018-08-08T10:39:34.247Z,997.40
2018-08-08T10:40:34.258Z,997.43
2018-08-08T10:41:34.268Z,997.42
2018-08-08T10:42:34.279Z,997.47
2018-08-08T10:43:34.288Z,997.47
2018-08-08T10:44:34.299Z,997.38
2018-08-08T10:45:34.312Z,997.46
2018-08-08T10:46:34.320Z,997.38
2018-08-08T10:47:34.330Z,997.47
2018-08-08T10:48:34.341Z,997.43
2018-08-08T10:49:34.352Z,997.54
2018-08-08T10:50:34.362Z,997.52
2018-08-08T10:51:34.372Z,997.56
2018-08-08T10:52:34.382Z,997.51
2018-08-08T10:53:34.393Z,997.44
2018-08-08T10:54:34.404Z,997.46
2018-08-08T10:55:34.439Z,997.51
2018-08-08T10:56:34.429Z,997.54
2018-08-08T10:57:34.436Z,997.48
2018-08-08T10:58:34.447Z,997.63
2018-08-08T10:59:34.475Z,997.50
2018-08-08T11:00:34.468Z,997.65
2018-08-08T11:01:34.479Z,997.61
2018-08-08T11:02:34.490Z,997.64
2018-08-08T11:03:34.501Z,997.64
2018-08-08T11:04:34.512Z,997.68
2018-08-08T11:05:34.528Z,997.62
2018-08-08T11:06:34.536Z,997.70
2018-08-08T11:07:34.544Z,997.59
2018-08-08T11:08:34.558Z,997.81
2018-08-08T11:09:34.567Z,997.68
2018-08-08T11:10:34.579Z,997.65
2018-08-08T11:11:34.593Z,997.67
2018-08-08T11:12:34.604Z,997.63
2018-08-08T11:13:34.612Z,997.74
2018-08-08T11:14:34.624Z,997.75
2018-08-08T11:15:34.634Z,997.71
2018-08-08T11:16:34.646Z,997.69
2018-08-08T11:17:34.656Z,997.71
2018-08-08T11:18:34.666Z,997.76
2018-08-08T11:19:34.676Z,997.80
2018-08-08T11:20:34.707Z,997.78
2018-08-08T11:21:34.696Z,997.77
2018-08-08T11:22:34.708Z,997.75
2018-08-08T11:23:34.714Z,997.81
2018-08-08T11:24:34.724Z,997.87
2018-08-08T11:25:34.738Z,997.75
2018-08-08T11:26:34.752Z,997.78
2018-08-08T11:27:34.752Z,997.84
2018-08-08T11:28:34.761Z,997.79
2018-08-08T11:29:34.768Z,997.79
2018-08-08T11:30:34.781Z,997.71
2018-08-08T11:31:34.782Z,997.77
2018-08-08T11:32:34.788Z,997.81
2018-08-08T11:33:34.803Z,997.91
2018-08-08T11:34:34.801Z,997.90
2018-08-08T11:35:34.806Z,997.86
2018-08-08T11:36:34.812Z,997.93
2018-08-08T11:37:34.817Z,997.93
2018-08-08T11:38:34.823Z,997.96
2018-08-08T11:39:34.827Z,997.92
2018-08-08T11:40:34.833Z,997.90
2018-08-08T11:41:34.839Z,997.95
2018-08-08T11:42:34.850Z,997.97
2018-08-08T11:43:34.852Z,998.00
2018-08-08T11:44:34.858Z,997.91
2018-08-08T11:45:34.866Z,998.09
2018-08-08T11:46:34.941Z,998.08
2018-08-08T11:47:34.881Z,998.11
2018-08-08T11:48:34.889Z,998.04
2018-08-08T11:49:35.200Z,998.11
2018-08-08T11:50:34.906Z,998.11
2018-08-08T11:51:34.915Z,998.12
2018-08-08T11:52:34.923Z,998.14
2018-08-08T11:53:34.933Z,998.09
2018-08-08T11:54:34.937Z,998.06
2018-08-08T11:55:34.944Z,998.12
2018-08-08T11:56:34.952Z,998.21
2018-08-08T11:57:34.959Z,998.20
2018-08-08T11:58:34.970Z,998.27
2018-08-08T11:59:34.974Z,998.12
2018-08-08T12:00:34.982Z,998.23
2018-08-08T12:01:34.990Z,998.26
2018-08-08T12:02:34.997Z,998.22
2018-08-08T12:03:35.004Z,998.21
2018-08-08T12:04:35.012Z,998.23
2018-08-08T12:05:35.019Z,998.22
2018-08-08T12:06:35.026Z,998.24
2018-08-08T12:07:35.031Z,998.28
2018-08-08T12:08:35.038Z,998.23
2018-08-08T12:09:35.041Z,998.26
2018-08-08T12:10:35.062Z,998.21
2018-08-08T12:11:35.050Z,998.31
2018-08-08T12:12:35.054Z,998.30
2018-08-08T12:13:35.059Z,998.33
2018-08-08T12:14:35.063Z,998.34
2018-08-08T12:15:35.065Z,998.34
2018-08-08T12:16:35.069Z,998.40
2018-08-08T12:17:35.072Z,998.44
2018-08-08T12:18:35.075Z,998.38
2018-08-08T12:19:35.081Z,998.38
2018-08-08T12:20:35.082Z,998.46
2018-08-08T12:21:35.083Z,998.46
2018-08-08T12:22:35.125Z,998.54
2018-08-08T12:23:35.087Z,998.40
2018-08-08T12:24:35.089Z,998.45
2018-08-08T12:25:35.128Z,998.45
2018-08-08T12:26:35.094Z,998.46
2018-08-08T12:27:35.094Z,998.49
2018-08-08T12:28:35.152Z,998.54
2018-08-08T12:29:35.098Z,998.58